sensor_id;sensor_type;location;lat;lon;timestamp;pressure;altitude;pressure_sealevel;temperature;humidity
26807;BME280;14380;49.910;6.792;2023-10-31T00:00:26;97151.25;;;11.96;100.00
26807;BME280;14380;49.910;6.792;2023-10-31T00:02:52;97146.75;;;12.18;100.00
26807;BME280;14380;49.910;6.792;2023-10-31T00:05:20;97152.41;;;12.03;100.00
26807;BME280;14380;49.910;6.792;2023-10-31T00:07:46;97153.47;;;12.32;100.00
26807;BME280;14380;49.910;6.792;2023-10-31T00:10:13;97157.19;;;12.19;100.00
26807;BME280;14380;49.910;6.792;2023-10-31T00:12:40;97156.09;;;12.12;100.00
26807;BME280;14380;49.910;6.792;2023-10-31T00:15:06;97151.50;;;12.24;100.00
26807;BME280;14380;49.910;6.792;2023-10-31T00:17:33;97154.31;;;12.32;100.00
26807;BME280;14380;49.910;6.792;2023-10-31T00:19:59;97169.84;;;12.06;100.00
26807;BME280;14380;49.910;6.792;2023-10-31T00:22:27;97170.13;;;12.13;100.00
26807;BME280;14380;49.910;6.792;2023-10-31T00:24:54;97169.97;;;12.14;100.00
26807;BME280;14380;49.910;6.792;2023-10-31T00:27:20;97171.41;;;11.87;100.00
26807;BME280;14380;49.910;6.792;2023-10-31T00:29:47;97167.38;;;11.93;100.00
26807;BME280;14380;49.910;6.792;2023-10-31T00:32:14;97165.16;;;11.98;100.00
26807;BME280;14380;49.910;6.792;2023-10-31T00:34:40;97154.59;;;11.98;100.00
26807;BME280;14380;49.910;6.792;2023-10-31T00:37:07;97150.47;;;12.05;100.00
26807;BME280;14380;49.910;6.792;2023-10-31T00:39:35;97157.06;;;12.11;100.00
26807;BME280;14380;49.910;6.792;2023-10-31T00:42:01;97158.25;;;11.76;100.00
26807;BME280;14380;49.910;6.792;2023-10-31T00:44:28;97158.19;;;11.87;100.00
26807;BME280;14380;49.910;6.792;2023-10-31T00:46:54;97159.19;;;11.96;100.00
26807;BME280;14380;49.910;6.792;2023-10-31T00:49:21;97157.97;;;12.00;100.00
26807;BME280;14380;49.910;6.792;2023-10-31T00:51:47;97153.31;;;11.93;100.00
26807;BME280;14380;49.910;6.792;2023-10-31T00:54:14;97152.06;;;12.18;100.00
26807;BME280;14380;49.910;6.792;2023-10-31T00:56:42;97159.31;;;12.26;100.00
26807;BME280;14380;49.910;6.792;2023-10-31T00:59:08;97165.09;;;12.00;100.00
26807;BME280;14380;49.910;6.792;2023-10-31T01:01:35;97160.63;;;12.00;100.00
26807;BME280;14380;49.910;6.792;2023-10-31T01:04:02;97163.34;;;12.30;100.00
26807;BME280;14380;49.910;6.792;2023-10-31T01:06:28;97173.25;;;12.28;100.00
26807;BME280;14380;49.910;6.792;2023-10-31T01:08:55;97156.50;;;12.17;100.00
26807;BME280;14380;49.910;6.792;2023-10-31T01:11:21;97165.38;;;12.07;100.00
26807;BME280;14380;49.910;6.792;2023-10-31T01:13:49;97167.00;;;11.98;100.00
26807;BME280;14380;49.910;6.792;2023-10-31T01:16:15;97169.84;;;12.06;100.00
26807;BME280;14380;49.910;6.792;2023-10-31T01:18:42;97167.50;;;12.13;100.00
26807;BME280;14380;49.910;6.792;2023-10-31T01:21:09;97168.59;;;12.10;100.00
26807;BME280;14380;49.910;6.792;2023-10-31T01:23:35;97170.66;;;11.75;100.00
26807;BME280;14380;49.910;6.792;2023-10-31T01:26:02;97174.34;;;11.63;100.00
26807;BME280;14380;49.910;6.792;2023-10-31T01:28:29;97180.59;;;11.93;100.00
26807;BME280;14380;49.910;6.792;2023-10-31T01:30:56;97177.34;;;11.80;100.00
26807;BME280;14380;49.910;6.792;2023-10-31T01:33:23;97177.53;;;11.88;100.00
26807;BME280;14380;49.910;6.792;2023-10-31T01:35:50;97175.44;;;12.23;100.00
26807;BME280;14380;49.910;6.792;2023-10-31T01:38:16;97181.88;;;11.99;100.00
26807;BME280;14380;49.910;6.792;2023-10-31T01:40:43;97176.88;;;11.96;100.00
26807;BME280;14380;49.910;6.792;2023-10-31T01:43:09;97176.69;;;12.18;100.00
26807;BME280;14380;49.910;6.792;2023-10-31T01:45:36;97179.59;;;12.15;100.00
26807;BME280;14380;49.910;6.792;2023-10-31T01:48:04;97174.91;;;12.19;100.00
26807;BME280;14380;49.910;6.792;2023-10-31T01:50:31;97176.13;;;12.15;100.00
26807;BME280;14380;49.910;6.792;2023-10-31T01:52:57;97190.25;;;12.35;100.00
26807;BME280;14380;49.910;6.792;2023-10-31T01:55:24;97180.19;;;12.19;100.00
26807;BME280;14380;49.910;6.792;2023-10-31T01:57:53;97182.41;;;11.93;100.00
26807;BME280;14380;49.910;6.792;2023-10-31T02:00:20;97181.44;;;12.25;100.00
26807;BME280;14380;49.910;6.792;2023-10-31T02:02:46;97177.38;;;12.20;100.00
26807;BME280;14380;49.910;6.792;2023-10-31T02:05:14;97173.75;;;12.12;100.00
26807;BME280;14380;49.910;6.792;2023-10-31T02:07:44;97181.56;;;12.13;100.00
26807;BME280;14380;49.910;6.792;2023-10-31T02:10:11;97184.22;;;12.13;100.00
26807;BME280;14380;49.910;6.792;2023-10-31T02:12:38;97187.72;;;12.24;100.00
26807;BME280;14380;49.910;6.792;2023-10-31T02:15:05;97189.88;;;12.09;100.00
26807;BME280;14380;49.910;6.792;2023-10-31T02:17:32;97184.34;;;12.12;100.00
26807;BME280;14380;49.910;6.792;2023-10-31T02:19:59;97174.47;;;11.93;100.00
26807;BME280;14380;49.910;6.792;2023-10-31T02:22:27;97181.03;;;11.98;100.00
26807;BME280;14380;49.910;6.792;2023-10-31T02:24:53;97186.63;;;12.26;100.00
26807;BME280;14380;49.910;6.792;2023-10-31T02:27:20;97178.47;;;12.08;100.00
26807;BME280;14380;49.910;6.792;2023-10-31T02:29:46;97180.09;;;11.99;100.00
26807;BME280;14380;49.910;6.792;2023-10-31T02:32:13;97182.22;;;11.84;100.00
26807;BME280;14380;49.910;6.792;2023-10-31T02:34:39;97173.91;;;12.10;100.00
26807;BME280;14380;49.910;6.792;2023-10-31T02:37:06;97179.78;;;11.93;100.00
26807;BME280;14380;49.910;6.792;2023-10-31T02:39:34;97188.53;;;11.93;100.00
26807;BME280;14380;49.910;6.792;2023-10-31T02:42:01;97191.66;;;11.77;100.00
26807;BME280;14380;49.910;6.792;2023-10-31T02:44:28;97201.16;;;11.80;100.00
26807;BME280;14380;49.910;6.792;2023-10-31T02:46:54;97199.97;;;11.94;100.00
26807;BME280;14380;49.910;6.792;2023-10-31T02:49:21;97201.44;;;11.86;100.00
26807;BME280;14380;49.910;6.792;2023-10-31T02:51:48;97217.66;;;11.72;100.00
26807;BME280;14380;49.910;6.792;2023-10-31T02:54:14;97206.56;;;11.78;100.00
26807;BME280;14380;49.910;6.792;2023-10-31T02:56:42;97203.13;;;11.87;100.00
26807;BME280;14380;49.910;6.792;2023-10-31T02:59:08;97214.88;;;11.95;100.00
26807;BME280;14380;49.910;6.792;2023-10-31T03:01:35;97211.91;;;12.09;100.00
26807;BME280;14380;49.910;6.792;2023-10-31T03:04:02;97203.38;;;12.05;100.00
26807;BME280;14380;49.910;6.792;2023-10-31T03:06:29;97210.00;;;11.69;100.00
26807;BME280;14380;49.910;6.792;2023-10-31T03:08:55;97215.34;;;12.00;100.00
26807;BME280;14380;49.910;6.792;2023-10-31T03:11:22;97221.97;;;11.73;100.00
26807;BME280;14380;49.910;6.792;2023-10-31T03:13:50;97220.91;;;11.54;100.00
26807;BME280;14380;49.910;6.792;2023-10-31T03:16:17;97225.91;;;11.79;100.00
26807;BME280;14380;49.910;6.792;2023-10-31T03:18:45;97230.09;;;11.81;100.00
26807;BME280;14380;49.910;6.792;2023-10-31T03:21:11;97222.78;;;11.95;100.00
26807;BME280;14380;49.910;6.792;2023-10-31T03:23:38;97228.41;;;12.01;100.00
26807;BME280;14380;49.910;6.792;2023-10-31T03:26:05;97217.59;;;11.83;100.00
26807;BME280;14380;49.910;6.792;2023-10-31T03:28:31;97224.00;;;12.12;100.00
26807;BME280;14380;49.910;6.792;2023-10-31T03:30:59;97226.97;;;11.97;100.00
26807;BME280;14380;49.910;6.792;2023-10-31T03:33:26;97236.09;;;11.83;100.00
26807;BME280;14380;49.910;6.792;2023-10-31T03:35:52;97229.19;;;12.13;100.00
26807;BME280;14380;49.910;6.792;2023-10-31T03:38:19;97230.38;;;11.57;100.00
26807;BME280;14380;49.910;6.792;2023-10-31T03:40:45;97232.84;;;11.70;100.00
26807;BME280;14380;49.910;6.792;2023-10-31T03:43:12;97232.94;;;11.68;100.00
26807;BME280;14380;49.910;6.792;2023-10-31T03:45:38;97236.88;;;11.53;100.00
26807;BME280;14380;49.910;6.792;2023-10-31T03:48:06;97230.81;;;11.83;100.00
26807;BME280;14380;49.910;6.792;2023-10-31T03:50:33;97242.41;;;11.71;100.00
26807;BME280;14380;49.910;6.792;2023-10-31T03:53:00;97249.25;;;11.95;100.00
26807;BME280;14380;49.910;6.792;2023-10-31T03:55:26;97242.56;;;11.69;100.00
26807;BME280;14380;49.910;6.792;2023-10-31T03:57:53;97245.59;;;11.65;100.00
26807;BME280;14380;49.910;6.792;2023-10-31T04:00:20;97254.50;;;11.64;100.00
26807;BME280;14380;49.910;6.792;2023-10-31T04:02:46;97248.88;;;11.57;100.00
26807;BME280;14380;49.910;6.792;2023-10-31T04:05:14;97252.47;;;11.56;100.00
26807;BME280;14380;49.910;6.792;2023-10-31T04:07:41;97257.78;;;11.56;100.00
26807;BME280;14380;49.910;6.792;2023-10-31T04:10:07;97255.56;;;11.61;100.00
26807;BME280;14380;49.910;6.792;2023-10-31T04:12:35;97270.28;;;11.54;100.00
26807;BME280;14380;49.910;6.792;2023-10-31T04:15:02;97265.06;;;11.42;100.00
26807;BME280;14380;49.910;6.792;2023-10-31T04:17:28;97262.44;;;11.64;100.00
26807;BME280;14380;49.910;6.792;2023-10-31T04:19:56;97270.66;;;11.49;100.00
26807;BME280;14380;49.910;6.792;2023-10-31T04:22:24;97277.63;;;11.71;100.00
26807;BME280;14380;49.910;6.792;2023-10-31T04:24:50;97280.69;;;11.67;100.00
26807;BME280;14380;49.910;6.792;2023-10-31T04:27:17;97283.09;;;11.37;100.00
26807;BME280;14380;49.910;6.792;2023-10-31T04:29:44;97282.28;;;11.79;100.00
26807;BME280;14380;49.910;6.792;2023-10-31T04:32:11;97285.88;;;11.57;100.00
26807;BME280;14380;49.910;6.792;2023-10-31T04:34:38;97281.63;;;11.44;100.00
26807;BME280;14380;49.910;6.792;2023-10-31T04:37:05;97291.50;;;11.64;100.00
26807;BME280;14380;49.910;6.792;2023-10-31T04:39:33;97287.75;;;11.66;100.00
26807;BME280;14380;49.910;6.792;2023-10-31T04:41:59;97285.13;;;11.66;100.00
26807;BME280;14380;49.910;6.792;2023-10-31T04:44:26;97289.25;;;11.80;100.00
26807;BME280;14380;49.910;6.792;2023-10-31T04:46:52;97292.22;;;11.66;100.00
26807;BME280;14380;49.910;6.792;2023-10-31T04:49:19;97287.31;;;11.28;100.00
26807;BME280;14380;49.910;6.792;2023-10-31T04:51:45;97294.72;;;11.46;100.00
26807;BME280;14380;49.910;6.792;2023-10-31T04:54:12;97291.59;;;11.41;100.00
26807;BME280;14380;49.910;6.792;2023-10-31T04:56:40;97291.03;;;11.37;100.00
26807;BME280;14380;49.910;6.792;2023-10-31T04:59:06;97283.59;;;11.64;100.00
26807;BME280;14380;49.910;6.792;2023-10-31T05:01:33;97288.00;;;11.42;100.00
26807;BME280;14380;49.910;6.792;2023-10-31T05:03:59;97285.09;;;11.45;100.00
26807;BME280;14380;49.910;6.792;2023-10-31T05:06:26;97294.13;;;11.42;100.00
26807;BME280;14380;49.910;6.792;2023-10-31T05:08:53;97305.31;;;11.35;100.00
26807;BME280;14380;49.910;6.792;2023-10-31T05:11:20;97306.03;;;11.37;100.00
26807;BME280;14380;49.910;6.792;2023-10-31T05:13:47;97318.16;;;11.39;100.00
26807;BME280;14380;49.910;6.792;2023-10-31T05:16:14;97317.41;;;11.16;100.00
26807;BME280;14380;49.910;6.792;2023-10-31T05:18:41;97320.91;;;11.38;100.00
26807;BME280;14380;49.910;6.792;2023-10-31T05:21:07;97320.13;;;11.26;100.00
26807;BME280;14380;49.910;6.792;2023-10-31T05:23:34;97322.31;;;11.53;100.00
26807;BME280;14380;49.910;6.792;2023-10-31T05:26:00;97322.03;;;11.35;100.00
26807;BME280;14380;49.910;6.792;2023-10-31T05:28:27;97328.03;;;11.37;100.00
26807;BME280;14380;49.910;6.792;2023-10-31T05:30:55;97335.28;;;11.56;100.00
26807;BME280;14380;49.910;6.792;2023-10-31T05:33:21;97328.41;;;11.54;100.00
26807;BME280;14380;49.910;6.792;2023-10-31T05:35:48;97343.53;;;11.63;100.00
26807;BME280;14380;49.910;6.792;2023-10-31T05:38:15;97341.53;;;11.55;100.00
26807;BME280;14380;49.910;6.792;2023-10-31T05:40:42;97344.31;;;11.75;100.00
26807;BME280;14380;49.910;6.792;2023-10-31T05:43:08;97341.34;;;11.68;100.00
26807;BME280;14380;49.910;6.792;2023-10-31T05:45:35;97345.38;;;11.51;100.00
26807;BME280;14380;49.910;6.792;2023-10-31T05:48:03;97343.00;;;11.48;100.00
26807;BME280;14380;49.910;6.792;2023-10-31T05:50:30;97345.91;;;11.66;100.00
26807;BME280;14380;49.910;6.792;2023-10-31T05:52:56;97355.66;;;11.33;100.00
26807;BME280;14380;49.910;6.792;2023-10-31T05:55:23;97355.16;;;11.39;100.00
26807;BME280;14380;49.910;6.792;2023-10-31T05:57:49;97349.66;;;11.31;100.00
26807;BME280;14380;49.910;6.792;2023-10-31T06:00:17;97351.72;;;11.60;100.00
26807;BME280;14380;49.910;6.792;2023-10-31T06:02:43;97352.69;;;11.59;100.00
26807;BME280;14380;49.910;6.792;2023-10-31T06:05:11;97358.41;;;11.31;100.00
26807;BME280;14380;49.910;6.792;2023-10-31T06:07:38;97356.88;;;11.62;100.00
26807;BME280;14380;49.910;6.792;2023-10-31T06:10:05;97359.41;;;11.63;100.00
26807;BME280;14380;49.910;6.792;2023-10-31T06:12:32;97367.28;;;11.42;100.00
26807;BME280;14380;49.910;6.792;2023-10-31T06:14:59;97361.22;;;11.63;100.00
26807;BME280;14380;49.910;6.792;2023-10-31T06:17:25;97379.75;;;11.51;100.00
26807;BME280;14380;49.910;6.792;2023-10-31T06:19:52;97373.75;;;11.49;100.00
26807;BME280;14380;49.910;6.792;2023-10-31T06:22:19;97376.97;;;11.85;100.00
26807;BME280;14380;49.910;6.792;2023-10-31T06:24:46;97385.81;;;11.63;100.00
26807;BME280;14380;49.910;6.792;2023-10-31T06:27:13;97394.41;;;11.55;100.00
26807;BME280;14380;49.910;6.792;2023-10-31T06:29:39;97396.75;;;11.70;100.00
26807;BME280;14380;49.910;6.792;2023-10-31T06:32:06;97402.69;;;11.83;100.00
26807;BME280;14380;49.910;6.792;2023-10-31T06:34:33;97411.28;;;11.75;100.00
26807;BME280;14380;49.910;6.792;2023-10-31T06:36:59;97417.53;;;11.74;100.00
26807;BME280;14380;49.910;6.792;2023-10-31T06:39:27;97414.44;;;11.58;100.00
26807;BME280;14380;49.910;6.792;2023-10-31T06:41:54;97424.41;;;11.66;100.00
26807;BME280;14380;49.910;6.792;2023-10-31T06:44:22;97424.53;;;11.53;100.00
26807;BME280;14380;49.910;6.792;2023-10-31T06:46:48;97435.69;;;11.68;100.00
26807;BME280;14380;49.910;6.792;2023-10-31T06:49:15;97444.00;;;11.52;100.00
26807;BME280;14380;49.910;6.792;2023-10-31T06:51:41;97452.19;;;11.49;100.00
26807;BME280;14380;49.910;6.792;2023-10-31T06:54:08;97452.56;;;11.55;100.00
26807;BME280;14380;49.910;6.792;2023-10-31T06:56:36;97462.19;;;11.45;100.00
26807;BME280;14380;49.910;6.792;2023-10-31T06:59:02;97465.91;;;11.86;100.00
26807;BME280;14380;49.910;6.792;2023-10-31T07:01:30;97473.50;;;11.13;100.00
26807;BME280;14380;49.910;6.792;2023-10-31T07:03:56;97481.06;;;11.40;100.00
26807;BME280;14380;49.910;6.792;2023-10-31T07:06:23;97474.19;;;11.26;100.00
26807;BME280;14380;49.910;6.792;2023-10-31T07:08:49;97480.34;;;11.38;100.00
26807;BME280;14380;49.910;6.792;2023-10-31T07:11:16;97485.63;;;11.27;100.00
26807;BME280;14380;49.910;6.792;2023-10-31T07:13:44;97481.88;;;11.29;100.00
26807;BME280;14380;49.910;6.792;2023-10-31T07:16:10;97481.78;;;11.31;100.00
26807;BME280;14380;49.910;6.792;2023-10-31T07:18:37;97483.06;;;11.48;100.00
26807;BME280;14380;49.910;6.792;2023-10-31T07:21:04;97493.06;;;11.44;100.00
26807;BME280;14380;49.910;6.792;2023-10-31T07:23:31;97499.91;;;11.36;100.00
26807;BME280;14380;49.910;6.792;2023-10-31T07:25:57;97507.81;;;11.36;100.00
26807;BME280;14380;49.910;6.792;2023-10-31T07:28:24;97505.66;;;11.52;100.00
26807;BME280;14380;49.910;6.792;2023-10-31T07:30:52;97509.03;;;11.43;100.00
26807;BME280;14380;49.910;6.792;2023-10-31T07:33:18;97499.31;;;11.43;100.00
26807;BME280;14380;49.910;6.792;2023-10-31T07:35:45;97511.53;;;11.67;100.00
26807;BME280;14380;49.910;6.792;2023-10-31T07:38:11;97509.59;;;11.69;100.00
26807;BME280;14380;49.910;6.792;2023-10-31T07:40:38;97513.44;;;11.77;100.00
26807;BME280;14380;49.910;6.792;2023-10-31T07:43:04;97512.97;;;11.49;100.00
26807;BME280;14380;49.910;6.792;2023-10-31T07:45:31;97521.28;;;11.55;100.00
26807;BME280;14380;49.910;6.792;2023-10-31T07:47:59;97527.00;;;11.72;100.00
26807;BME280;14380;49.910;6.792;2023-10-31T07:50:25;97540.59;;;11.56;100.00
26807;BME280;14380;49.910;6.792;2023-10-31T07:52:52;97531.84;;;11.44;100.00
26807;BME280;14380;49.910;6.792;2023-10-31T07:55:19;97534.59;;;11.77;100.00
26807;BME280;14380;49.910;6.792;2023-10-31T07:57:45;97537.75;;;11.48;100.00
26807;BME280;14380;49.910;6.792;2023-10-31T08:00:13;97537.13;;;11.67;100.00
26807;BME280;14380;49.910;6.792;2023-10-31T08:02:40;97546.03;;;11.43;100.00
26807;BME280;14380;49.910;6.792;2023-10-31T08:05:09;97550.34;;;11.55;100.00
26807;BME280;14380;49.910;6.792;2023-10-31T08:07:36;97553.25;;;11.64;100.00
26807;BME280;14380;49.910;6.792;2023-10-31T08:10:03;97546.38;;;11.72;100.00
26807;BME280;14380;49.910;6.792;2023-10-31T08:12:30;97561.13;;;11.98;100.00
26807;BME280;14380;49.910;6.792;2023-10-31T08:14:56;97551.16;;;12.01;100.00
26807;BME280;14380;49.910;6.792;2023-10-31T08:17:23;97558.88;;;11.82;100.00
26807;BME280;14380;49.910;6.792;2023-10-31T08:19:50;97554.06;;;11.87;100.00
26807;BME280;14380;49.910;6.792;2023-10-31T08:22:18;97562.81;;;11.87;100.00
26807;BME280;14380;49.910;6.792;2023-10-31T08:24:44;97561.13;;;11.98;100.00
26807;BME280;14380;49.910;6.792;2023-10-31T08:27:11;97567.84;;;12.13;100.00
26807;BME280;14380;49.910;6.792;2023-10-31T08:29:38;97566.50;;;11.96;100.00
26807;BME280;14380;49.910;6.792;2023-10-31T08:32:05;97572.91;;;12.05;100.00
26807;BME280;14380;49.910;6.792;2023-10-31T08:34:32;97567.34;;;12.19;100.00
26807;BME280;14380;49.910;6.792;2023-10-31T08:36:58;97574.31;;;12.53;100.00
26807;BME280;14380;49.910;6.792;2023-10-31T08:39:27;97582.53;;;12.39;100.00
26807;BME280;14380;49.910;6.792;2023-10-31T08:41:55;97586.53;;;12.44;100.00
26807;BME280;14380;49.910;6.792;2023-10-31T08:44:22;97596.91;;;12.25;100.00
26807;BME280;14380;49.910;6.792;2023-10-31T08:46:49;97597.94;;;12.12;100.00
26807;BME280;14380;49.910;6.792;2023-10-31T08:49:16;97605.47;;;12.28;100.00
26807;BME280;14380;49.910;6.792;2023-10-31T08:51:43;97609.66;;;12.31;100.00
26807;BME280;14380;49.910;6.792;2023-10-31T08:54:10;97608.59;;;12.22;100.00
26807;BME280;14380;49.910;6.792;2023-10-31T08:56:38;97617.03;;;12.04;100.00
26807;BME280;14380;49.910;6.792;2023-10-31T08:59:05;97626.03;;;12.25;100.00
26807;BME280;14380;49.910;6.792;2023-10-31T09:01:31;97628.66;;;12.25;100.00
26807;BME280;14380;49.910;6.792;2023-10-31T09:03:58;97629.44;;;12.48;100.00
26807;BME280;14380;49.910;6.792;2023-10-31T09:06:26;97635.75;;;12.36;100.00
26807;BME280;14380;49.910;6.792;2023-10-31T09:08:52;97634.41;;;12.41;100.00
26807;BME280;14380;49.910;6.792;2023-10-31T09:11:19;97638.25;;;12.48;100.00
26807;BME280;14380;49.910;6.792;2023-10-31T09:13:47;97643.00;;;12.22;100.00
26807;BME280;14380;49.910;6.792;2023-10-31T09:16:13;97639.31;;;12.46;100.00
26807;BME280;14380;49.910;6.792;2023-10-31T09:18:40;97640.91;;;12.48;100.00
26807;BME280;14380;49.910;6.792;2023-10-31T09:21:06;97637.09;;;12.74;100.00
26807;BME280;14380;49.910;6.792;2023-10-31T09:23:33;97642.34;;;12.53;100.00
26807;BME280;14380;49.910;6.792;2023-10-31T09:25:59;97634.25;;;12.87;100.00
26807;BME280;14380;49.910;6.792;2023-10-31T09:28:26;97631.38;;;13.11;100.00
26807;BME280;14380;49.910;6.792;2023-10-31T09:30:54;97633.41;;;13.07;100.00
26807;BME280;14380;49.910;6.792;2023-10-31T09:33:21;97639.06;;;13.35;100.00
26807;BME280;14380;49.910;6.792;2023-10-31T09:35:47;97644.22;;;13.16;100.00
26807;BME280;14380;49.910;6.792;2023-10-31T09:38:14;97650.34;;;12.95;100.00
26807;BME280;14380;49.910;6.792;2023-10-31T09:40:40;97650.69;;;13.02;100.00
26807;BME280;14380;49.910;6.792;2023-10-31T09:43:07;97655.16;;;13.22;100.00
26807;BME280;14380;49.910;6.792;2023-10-31T09:45:33;97652.69;;;13.09;100.00
26807;BME280;14380;49.910;6.792;2023-10-31T09:48:01;97648.50;;;13.28;100.00
26807;BME280;14380;49.910;6.792;2023-10-31T09:50:29;97651.78;;;12.99;100.00
26807;BME280;14380;49.910;6.792;2023-10-31T09:52:56;97653.59;;;13.20;100.00
26807;BME280;14380;49.910;6.792;2023-10-31T09:55:24;97649.53;;;13.16;100.00
26807;BME280;14380;49.910;6.792;2023-10-31T09:57:50;97643.66;;;13.33;100.00
26807;BME280;14380;49.910;6.792;2023-10-31T10:00:18;97655.75;;;12.93;100.00
26807;BME280;14380;49.910;6.792;2023-10-31T10:02:44;97650.97;;;13.41;100.00
26807;BME280;14380;49.910;6.792;2023-10-31T10:05:14;97646.75;;;13.38;100.00
26807;BME280;14380;49.910;6.792;2023-10-31T10:07:42;97651.97;;;14.02;100.00
26807;BME280;14380;49.910;6.792;2023-10-31T10:10:10;97650.78;;;13.85;100.00
26807;BME280;14380;49.910;6.792;2023-10-31T10:12:37;97653.25;;;13.77;100.00
26807;BME280;14380;49.910;6.792;2023-10-31T10:15:04;97659.66;;;13.32;100.00
26807;BME280;14380;49.910;6.792;2023-10-31T10:17:32;97657.38;;;13.91;100.00
26807;BME280;14380;49.910;6.792;2023-10-31T10:20:06;97658.59;;;13.56;100.00
26807;BME280;14380;49.910;6.792;2023-10-31T10:22:37;97659.09;;;13.71;100.00
26807;BME280;14380;49.910;6.792;2023-10-31T10:25:06;97661.63;;;14.13;100.00
26807;BME280;14380;49.910;6.792;2023-10-31T10:27:33;97670.72;;;14.10;100.00
26807;BME280;14380;49.910;6.792;2023-10-31T10:29:59;97665.34;;;14.32;100.00
26807;BME280;14380;49.910;6.792;2023-10-31T10:32:26;97668.91;;;14.21;100.00
26807;BME280;14380;49.910;6.792;2023-10-31T10:34:52;97673.31;;;14.01;100.00
26807;BME280;14380;49.910;6.792;2023-10-31T10:37:21;97670.47;;;14.23;100.00
26807;BME280;14380;49.910;6.792;2023-10-31T10:39:51;97678.66;;;14.61;100.00
26807;BME280;14380;49.910;6.792;2023-10-31T10:42:28;97679.03;;;13.96;100.00
26807;BME280;14380;49.910;6.792;2023-10-31T10:44:58;97681.94;;;13.62;100.00
26807;BME280;14380;49.910;6.792;2023-10-31T10:47:28;97675.94;;;13.60;100.00
26807;BME280;14380;49.910;6.792;2023-10-31T10:49:58;97673.78;;;13.75;100.00
26807;BME280;14380;49.910;6.792;2023-10-31T10:52:28;97671.19;;;13.94;100.00
26807;BME280;14380;49.910;6.792;2023-10-31T10:55:01;97673.25;;;14.22;100.00
26807;BME280;14380;49.910;6.792;2023-10-31T10:57:37;97677.91;;;14.39;100.00
26807;BME280;14380;49.910;6.792;2023-10-31T11:00:05;97668.41;;;14.37;100.00
26807;BME280;14380;49.910;6.792;2023-10-31T11:02:34;97666.00;;;14.24;100.00
26807;BME280;14380;49.910;6.792;2023-10-31T11:05:02;97673.59;;;14.38;100.00
26807;BME280;14380;49.910;6.792;2023-10-31T11:07:29;97671.84;;;14.18;100.00
26807;BME280;14380;49.910;6.792;2023-10-31T11:09:58;97676.56;;;14.04;100.00
26807;BME280;14380;49.910;6.792;2023-10-31T11:12:27;97663.94;;;14.47;100.00
26807;BME280;14380;49.910;6.792;2023-10-31T11:14:56;97673.13;;;13.92;100.00
26807;BME280;14380;49.910;6.792;2023-10-31T11:17:26;97679.22;;;14.04;100.00
26807;BME280;14380;49.910;6.792;2023-10-31T11:19:55;97675.94;;;14.32;100.00
26807;BME280;14380;49.910;6.792;2023-10-31T11:22:22;97669.22;;;14.27;100.00
26807;BME280;14380;49.910;6.792;2023-10-31T11:24:49;97679.84;;;14.27;100.00
26807;BME280;14380;49.910;6.792;2023-10-31T11:27:18;97686.31;;;13.73;100.00
26807;BME280;14380;49.910;6.792;2023-10-31T11:29:44;97682.28;;;13.36;100.00
26807;BME280;14380;49.910;6.792;2023-10-31T11:32:11;97669.91;;;13.89;100.00
26807;BME280;14380;49.910;6.792;2023-10-31T11:34:39;97673.63;;;14.07;100.00
26807;BME280;14380;49.910;6.792;2023-10-31T11:37:23;97674.72;;;14.05;100.00
26807;BME280;14380;49.910;6.792;2023-10-31T11:40:20;97680.00;;;13.95;100.00
26807;BME280;14380;49.910;6.792;2023-10-31T11:42:49;97674.84;;;13.72;100.00
26807;BME280;14380;49.910;6.792;2023-10-31T11:45:26;97675.31;;;13.77;100.00
26807;BME280;14380;49.910;6.792;2023-10-31T11:47:53;97677.78;;;14.00;100.00
26807;BME280;14380;49.910;6.792;2023-10-31T11:50:21;97678.78;;;13.99;100.00
26807;BME280;14380;49.910;6.792;2023-10-31T11:53:02;97680.56;;;14.39;100.00
26807;BME280;14380;49.910;6.792;2023-10-31T11:55:31;97684.13;;;14.19;100.00
26807;BME280;14380;49.910;6.792;2023-10-31T11:58:11;97690.44;;;13.87;100.00
26807;BME280;14380;49.910;6.792;2023-10-31T12:00:38;97698.81;;;14.23;100.00
26807;BME280;14380;49.910;6.792;2023-10-31T12:03:04;97699.06;;;14.10;100.00
26807;BME280;14380;49.910;6.792;2023-10-31T12:05:31;97683.22;;;13.98;100.00
26807;BME280;14380;49.910;6.792;2023-10-31T12:07:57;97694.50;;;14.22;100.00
26807;BME280;14380;49.910;6.792;2023-10-31T12:10:25;97691.81;;;14.12;100.00
26807;BME280;14380;49.910;6.792;2023-10-31T12:12:56;97689.63;;;14.37;100.00
26807;BME280;14380;49.910;6.792;2023-10-31T12:15:24;97688.50;;;14.70;100.00
26807;BME280;14380;49.910;6.792;2023-10-31T12:17:51;97690.66;;;14.55;100.00
26807;BME280;14380;49.910;6.792;2023-10-31T12:20:18;97679.97;;;15.06;100.00
26807;BME280;14380;49.910;6.792;2023-10-31T12:22:44;97685.72;;;15.41;98.40
26807;BME280;14380;49.910;6.792;2023-10-31T12:25:11;97683.22;;;15.20;100.00
26807;BME280;14380;49.910;6.792;2023-10-31T12:27:45;97689.34;;;14.81;100.00
26807;BME280;14380;49.910;6.792;2023-10-31T12:30:14;97687.81;;;14.88;99.44
26807;BME280;14380;49.910;6.792;2023-10-31T12:32:43;97682.78;;;15.14;100.00
26807;BME280;14380;49.910;6.792;2023-10-31T12:35:12;97681.81;;;15.15;100.00
26807;BME280;14380;49.910;6.792;2023-10-31T12:37:44;97686.41;;;15.33;100.00
26807;BME280;14380;49.910;6.792;2023-10-31T12:40:12;97682.84;;;15.52;100.00
26807;BME280;14380;49.910;6.792;2023-10-31T12:42:42;97676.22;;;15.76;100.00
26807;BME280;14380;49.910;6.792;2023-10-31T12:45:09;97681.22;;;15.41;100.00
26807;BME280;14380;49.910;6.792;2023-10-31T12:47:36;97680.66;;;15.38;97.73
26807;BME280;14380;49.910;6.792;2023-10-31T12:50:08;97677.75;;;15.79;100.00